sensor_id;sensor_type;location;lat;lon;timestamp;pressure;altitude;pressure_sealevel;temperature;humidity
7168;BME280;3625;51.762;14.320;2023-06-10T00:00:16;100573.41;;;18.41;100.00
7168;BME280;3625;51.762;14.320;2023-06-10T00:02:45;100570.88;;;18.38;100.00
7168;BME280;3625;51.762;14.320;2023-06-10T00:05:13;100569.06;;;18.38;100.00
7168;BME280;3625;51.762;14.320;2023-06-10T00:07:43;100564.56;;;18.39;100.00
7168;BME280;3625;51.762;14.320;2023-06-10T00:10:13;100571.81;;;18.37;100.00
7168;BME280;3625;51.762;14.320;2023-06-10T00:12:42;100572.28;;;18.28;100.00
7168;BME280;3625;51.762;14.320;2023-06-10T00:15:11;100570.97;;;18.19;100.00
7168;BME280;3625;51.762;14.320;2023-06-10T00:17:41;100570.34;;;18.14;100.00
7168;BME280;3625;51.762;14.320;2023-06-10T00:20:11;100566.94;;;18.10;100.00
7168;BME280;3625;51.762;14.320;2023-06-10T00:22:40;100563.00;;;18.00;100.00
7168;BME280;3625;51.762;14.320;2023-06-10T00:25:13;100570.09;;;18.01;100.00
7168;BME280;3625;51.762;14.320;2023-06-10T00:27:42;100572.16;;;17.96;100.00
7168;BME280;3625;51.762;14.320;2023-06-10T00:30:11;100563.72;;;17.87;100.00
7168;BME280;3625;51.762;14.320;2023-06-10T00:32:41;100558.09;;;17.74;100.00
7168;BME280;3625;51.762;14.320;2023-06-10T00:35:09;100501.34;;;17.31;100.00
7168;BME280;3625;51.762;14.320;2023-06-10T00:37:38;100559.63;;;17.61;100.00
7168;BME280;3625;51.762;14.320;2023-06-10T00:40:10;100474.00;;;17.08;100.00
7168;BME280;3625;51.762;14.320;2023-06-10T00:42:38;100553.06;;;17.49;100.00
7168;BME280;3625;51.762;14.320;2023-06-10T00:45:07;100551.56;;;17.44;100.00
7168;BME280;3625;51.762;14.320;2023-06-10T00:47:37;100500.75;;;17.08;100.00
7168;BME280;3625;51.762;14.320;2023-06-10T00:50:07;100566.19;;;17.37;100.00
7168;BME280;3625;51.762;14.320;2023-06-10T00:52:36;100565.03;;;17.23;100.00
7168;BME280;3625;51.762;14.320;2023-06-10T00:55:06;100562.66;;;17.17;100.00
7168;BME280;3625;51.762;14.320;2023-06-10T00:57:36;100543.66;;;17.05;100.00
7168;BME280;3625;51.762;14.320;2023-06-10T01:00:08;100567.38;;;17.12;100.00
7168;BME280;3625;51.762;14.320;2023-06-10T01:02:37;100571.84;;;17.12;100.00
7168;BME280;3625;51.762;14.320;2023-06-10T01:05:08;100573.00;;;17.06;100.00
7168;BME280;3625;51.762;14.320;2023-06-10T01:07:46;100567.81;;;17.03;100.00
7168;BME280;3625;51.762;14.320;2023-06-10T01:10:29;100574.22;;;16.99;100.00
7168;BME280;3625;51.762;14.320;2023-06-10T01:13:03;100575.16;;;16.98;100.00
7168;BME280;3625;51.762;14.320;2023-06-10T01:15:35;100553.91;;;16.76;100.00
7168;BME280;3625;51.762;14.320;2023-06-10T01:18:07;100578.31;;;16.87;100.00
7168;BME280;3625;51.762;14.320;2023-06-10T01:20:38;100579.34;;;16.85;100.00
7168;BME280;3625;51.762;14.320;2023-06-10T01:23:10;100576.94;;;16.79;100.00
7168;BME280;3625;51.762;14.320;2023-06-10T01:25:44;100546.53;;;16.63;100.00
7168;BME280;3625;51.762;14.320;2023-06-10T01:28:19;100570.31;;;16.69;100.00
7168;BME280;3625;51.762;14.320;2023-06-10T01:30:59;100579.16;;;16.69;100.00
7168;BME280;3625;51.762;14.320;2023-06-10T01:33:42;100583.25;;;16.57;100.00
7168;BME280;3625;51.762;14.320;2023-06-10T01:36:12;100589.38;;;16.59;100.00
7168;BME280;3625;51.762;14.320;2023-06-10T01:38:44;100590.31;;;16.58;100.00
7168;BME280;3625;51.762;14.320;2023-06-10T01:41:17;100582.44;;;16.55;100.00
7168;BME280;3625;51.762;14.320;2023-06-10T01:43:47;100586.84;;;16.56;100.00
7168;BME280;3625;51.762;14.320;2023-06-10T01:46:16;100584.47;;;16.50;100.00
7168;BME280;3625;51.762;14.320;2023-06-10T01:48:47;100597.72;;;16.52;100.00
7168;BME280;3625;51.762;14.320;2023-06-10T01:51:17;100614.47;;;16.55;100.00
7168;BME280;3625;51.762;14.320;2023-06-10T01:53:47;100626.56;;;16.44;100.00
7168;BME280;3625;51.762;14.320;2023-06-10T01:56:16;100615.69;;;16.28;100.00
7168;BME280;3625;51.762;14.320;2023-06-10T01:58:46;100632.25;;;16.16;100.00
7168;BME280;3625;51.762;14.320;2023-06-10T02:01:15;100628.22;;;16.06;100.00
7168;BME280;3625;51.762;14.320;2023-06-10T02:03:43;100622.63;;;16.12;100.00
7168;BME280;3625;51.762;14.320;2023-06-10T02:06:13;100625.00;;;16.18;100.00
7168;BME280;3625;51.762;14.320;2023-06-10T02:08:42;100633.13;;;16.16;100.00
7168;BME280;3625;51.762;14.320;2023-06-10T02:11:11;100639.72;;;16.08;100.00
7168;BME280;3625;51.762;14.320;2023-06-10T02:13:40;100640.16;;;15.97;100.00
7168;BME280;3625;51.762;14.320;2023-06-10T02:16:09;100636.66;;;15.95;100.00
7168;BME280;3625;51.762;14.320;2023-06-10T02:18:41;100637.47;;;15.97;100.00
7168;BME280;3625;51.762;14.320;2023-06-10T02:21:11;100635.75;;;15.96;100.00
7168;BME280;3625;51.762;14.320;2023-06-10T02:23:39;100643.13;;;15.90;100.00
7168;BME280;3625;51.762;14.320;2023-06-10T02:26:08;100642.44;;;15.84;100.00
7168;BME280;3625;51.762;14.320;2023-06-10T02:28:38;100640.97;;;15.77;100.00
7168;BME280;3625;51.762;14.320;2023-06-10T02:31:07;100640.97;;;15.77;100.00
7168;BME280;3625;51.762;14.320;2023-06-10T02:33:37;100643.50;;;15.80;100.00
7168;BME280;3625;51.762;14.320;2023-06-10T02:36:08;100651.75;;;15.74;100.00
7168;BME280;3625;51.762;14.320;2023-06-10T02:38:40;100648.41;;;15.69;100.00
7168;BME280;3625;51.762;14.320;2023-06-10T02:41:10;100643.38;;;15.62;100.00
7168;BME280;3625;51.762;14.320;2023-06-10T02:43:40;100643.75;;;15.51;100.00
7168;BME280;3625;51.762;14.320;2023-06-10T02:46:10;100646.75;;;15.43;100.00
7168;BME280;3625;51.762;14.320;2023-06-10T02:48:42;100647.78;;;15.39;100.00
7168;BME280;3625;51.762;14.320;2023-06-10T02:51:14;100643.44;;;15.37;100.00
7168;BME280;3625;51.762;14.320;2023-06-10T02:53:46;100620.06;;;15.22;100.00
7168;BME280;3625;51.762;14.320;2023-06-10T02:56:16;100648.06;;;15.32;100.00
7168;BME280;3625;51.762;14.320;2023-06-10T02:58:47;100646.47;;;15.28;100.00
7168;BME280;3625;51.762;14.320;2023-06-10T03:01:16;100651.03;;;15.24;100.00
7168;BME280;3625;51.762;14.320;2023-06-10T03:03:54;100652.03;;;15.22;100.00
7168;BME280;3625;51.762;14.320;2023-06-10T03:06:24;100654.72;;;15.22;100.00
7168;BME280;3625;51.762;14.320;2023-06-10T03:09:02;100652.03;;;15.22;100.00
7168;BME280;3625;51.762;14.320;2023-06-10T03:11:31;100658.31;;;15.21;100.00
7168;BME280;3625;51.762;14.320;2023-06-10T03:14:01;100654.72;;;15.22;100.00
7168;BME280;3625;51.762;14.320;2023-06-10T03:16:31;100560.81;;;14.68;100.00
7168;BME280;3625;51.762;14.320;2023-06-10T03:19:00;100656.25;;;15.27;100.00
7168;BME280;3625;51.762;14.320;2023-06-10T03:21:29;100655.19;;;15.31;100.00
7168;BME280;3625;51.762;14.320;2023-06-10T03:23:59;100654.78;;;15.42;100.00
7168;BME280;3625;51.762;14.320;2023-06-10T03:26:28;100656.19;;;15.52;100.00
7168;BME280;3625;51.762;14.320;2023-06-10T03:28:58;100648.72;;;15.62;100.00
7168;BME280;3625;51.762;14.320;2023-06-10T03:31:28;100630.50;;;15.49;100.00
7168;BME280;3625;51.762;14.320;2023-06-10T03:33:57;100662.66;;;15.68;100.00
7168;BME280;3625;51.762;14.320;2023-06-10T03:36:26;100662.66;;;15.68;100.00
7168;BME280;3625;51.762;14.320;2023-06-10T03:38:57;100663.59;;;15.67;100.00
7168;BME280;3625;51.762;14.320;2023-06-10T03:41:26;100637.63;;;15.49;100.00
7168;BME280;3625;51.762;14.320;2023-06-10T03:43:55;100671.53;;;15.69;100.00
7168;BME280;3625;51.762;14.320;2023-06-10T03:46:24;100667.03;;;15.71;100.00
7168;BME280;3625;51.762;14.320;2023-06-10T03:48:54;100673.22;;;15.71;100.00
7168;BME280;3625;51.762;14.320;2023-06-10T03:51:23;100644.41;;;15.58;100.00
7168;BME280;3625;51.762;14.320;2023-06-10T03:53:51;100627.75;;;15.51;100.00
7168;BME280;3625;51.762;14.320;2023-06-10T03:56:21;100686.88;;;15.85;100.00
7168;BME280;3625;51.762;14.320;2023-06-10T03:58:51;100678.56;;;15.93;100.00
7168;BME280;3625;51.762;14.320;2023-06-10T04:01:19;100685.56;;;15.96;100.00
7168;BME280;3625;51.762;14.320;2023-06-10T04:03:49;100684.59;;;15.98;100.00
7168;BME280;3625;51.762;14.320;2023-06-10T04:06:20;100680.78;;;16.04;100.00
7168;BME280;3625;51.762;14.320;2023-06-10T04:08:49;100690.34;;;16.09;100.00
7168;BME280;3625;51.762;14.320;2023-06-10T04:11:18;100486.00;;;14.96;100.00
7168;BME280;3625;51.762;14.320;2023-06-10T04:13:49;100695.06;;;16.25;100.00
7168;BME280;3625;51.762;14.320;2023-06-10T04:16:18;100689.50;;;16.29;100.00
7168;BME280;3625;51.762;14.320;2023-06-10T04:18:49;100603.28;;;15.85;100.00
7168;BME280;3625;51.762;14.320;2023-06-10T04:21:20;100696.75;;;16.47;100.00
7168;BME280;3625;51.762;14.320;2023-06-10T04:23:49;100697.34;;;16.54;100.00
7168;BME280;3625;51.762;14.320;2023-06-10T04:26:19;100704.13;;;16.63;100.00
7168;BME280;3625;51.762;14.320;2023-06-10T04:28:48;100699.31;;;16.71;100.00
7168;BME280;3625;51.762;14.320;2023-06-10T04:31:18;100695.84;;;16.89;100.00
7168;BME280;3625;51.762;14.320;2023-06-10T04:33:47;100697.31;;;16.96;100.00
7168;BME280;3625;51.762;14.320;2023-06-10T04:36:16;100697.00;;;17.04;100.00
7168;BME280;3625;51.762;14.320;2023-06-10T04:38:46;100694.75;;;17.13;100.00
7168;BME280;3625;51.762;14.320;2023-06-10T04:41:14;100658.19;;;16.95;100.00
7168;BME280;3625;51.762;14.320;2023-06-10T04:43:43;100691.38;;;17.28;100.00
7168;BME280;3625;51.762;14.320;2023-06-10T04:46:12;100695.50;;;17.35;100.00
7168;BME280;3625;51.762;14.320;2023-06-10T04:48:40;100676.22;;;17.29;100.00
7168;BME280;3625;51.762;14.320;2023-06-10T04:51:09;100699.25;;;17.50;100.00
7168;BME280;3625;51.762;14.320;2023-06-10T04:53:38;100700.38;;;17.65;100.00
7168;BME280;3625;51.762;14.320;2023-06-10T04:56:08;100700.53;;;17.81;100.00
7168;BME280;3625;51.762;14.320;2023-06-10T04:58:36;100598.56;;;17.30;100.00
7168;BME280;3625;51.762;14.320;2023-06-10T05:01:05;100711.69;;;18.07;100.00
7168;BME280;3625;51.762;14.320;2023-06-10T05:03:33;100712.03;;;18.19;100.00
7168;BME280;3625;51.762;14.320;2023-06-10T05:06:02;100718.69;;;18.29;100.00
7168;BME280;3625;51.762;14.320;2023-06-10T05:08:31;100718.34;;;18.35;100.00
7168;BME280;3625;51.762;14.320;2023-06-10T05:10:59;100712.72;;;18.41;100.00
7168;BME280;3625;51.762;14.320;2023-06-10T05:13:29;100727.34;;;18.51;100.00
7168;BME280;3625;51.762;14.320;2023-06-10T05:15:58;100719.00;;;18.59;100.00
7168;BME280;3625;51.762;14.320;2023-06-10T05:18:26;100721.50;;;18.79;100.00
7168;BME280;3625;51.762;14.320;2023-06-10T05:20:55;100738.09;;;19.03;100.00
7168;BME280;3625;51.762;14.320;2023-06-10T05:23:23;100723.91;;;19.18;100.00
7168;BME280;3625;51.762;14.320;2023-06-10T05:25:52;100706.69;;;19.38;100.00
7168;BME280;3625;51.762;14.320;2023-06-10T05:28:20;100733.00;;;19.64;100.00
7168;BME280;3625;51.762;14.320;2023-06-10T05:30:50;100705.22;;;19.65;100.00
7168;BME280;3625;51.762;14.320;2023-06-10T05:33:18;100738.34;;;19.97;100.00
7168;BME280;3625;51.762;14.320;2023-06-10T05:35:47;100743.19;;;20.06;100.00
7168;BME280;3625;51.762;14.320;2023-06-10T05:38:16;100746.81;;;20.21;99.13
7168;BME280;3625;51.762;14.320;2023-06-10T05:40:45;100741.16;;;20.25;94.19
7168;BME280;3625;51.762;14.320;2023-06-10T05:43:14;100745.97;;;20.36;90.78
7168;BME280;3625;51.762;14.320;2023-06-10T05:45:44;100731.19;;;20.27;91.19
7168;BME280;3625;51.762;14.320;2023-06-10T05:48:14;100747.16;;;20.46;92.68
7168;BME280;3625;51.762;14.320;2023-06-10T05:50:42;100652.44;;;20.11;89.04
7168;BME280;3625;51.762;14.320;2023-06-10T05:53:15;100745.00;;;20.67;88.21
7168;BME280;3625;51.762;14.320;2023-06-10T05:55:44;100667.16;;;20.20;86.23
7168;BME280;3625;51.762;14.320;2023-06-10T05:58:14;100745.13;;;20.65;85.76
7168;BME280;3625;51.762;14.320;2023-06-10T06:00:42;100737.81;;;20.67;85.88
7168;BME280;3625;51.762;14.320;2023-06-10T06:03:12;100737.94;;;20.66;86.69
7168;BME280;3625;51.762;14.320;2023-06-10T06:05:42;100742.94;;;20.72;87.72
7168;BME280;3625;51.762;14.320;2023-06-10T06:08:11;100755.75;;;20.83;85.54
7168;BME280;3625;51.762;14.320;2023-06-10T06:10:40;100736.50;;;20.75;83.78
7168;BME280;3625;51.762;14.320;2023-06-10T06:13:09;100748.06;;;20.91;84.54
7168;BME280;3625;51.762;14.320;2023-06-10T06:15:37;100745.69;;;21.00;86.18
7168;BME280;3625;51.762;14.320;2023-06-10T06:18:06;100741.47;;;21.10;86.57
7168;BME280;3625;51.762;14.320;2023-06-10T06:20:35;100749.00;;;21.20;85.22
7168;BME280;3625;51.762;14.320;2023-06-10T06:23:04;100732.44;;;21.12;84.08
7168;BME280;3625;51.762;14.320;2023-06-10T06:25:33;100753.34;;;21.36;83.60
7168;BME280;3625;51.762;14.320;2023-06-10T06:28:02;100754.81;;;21.42;83.85
7168;BME280;3625;51.762;14.320;2023-06-10T06:30:31;100756.25;;;21.48;84.46
7168;BME280;3625;51.762;14.320;2023-06-10T06:32:59;100754.31;;;21.50;80.63
7168;BME280;3625;51.762;14.320;2023-06-10T06:35:31;100745.38;;;21.35;80.84
7168;BME280;3625;51.762;14.320;2023-06-10T06:38:01;100771.34;;;21.50;79.27
7168;BME280;3625;51.762;14.320;2023-06-10T06:40:33;100766.16;;;21.61;79.35
7168;BME280;3625;51.762;14.320;2023-06-10T06:43:01;100760.84;;;21.74;78.56
7168;BME280;3625;51.762;14.320;2023-06-10T06:45:50;100766.50;;;21.83;75.62
7168;BME280;3625;51.762;14.320;2023-06-10T06:48:19;100772.78;;;21.84;76.35
7168;BME280;3625;51.762;14.320;2023-06-10T06:50:48;100651.16;;;21.21;76.73
7168;BME280;3625;51.762;14.320;2023-06-10T06:53:17;100779.22;;;21.96;76.44
7168;BME280;3625;51.762;14.320;2023-06-10T06:55:47;100782.31;;;22.04;75.32
7168;BME280;3625;51.762;14.320;2023-06-10T06:58:16;100785.28;;;22.13;75.93
7168;BME280;3625;51.762;14.320;2023-06-10T07:00:44;100712.47;;;21.72;72.63
7168;BME280;3625;51.762;14.320;2023-06-10T07:03:13;100792.38;;;22.14;73.92
7168;BME280;3625;51.762;14.320;2023-06-10T07:05:42;100787.84;;;22.29;74.23
7168;BME280;3625;51.762;14.320;2023-06-10T07:08:11;100794.56;;;22.36;72.59
7168;BME280;3625;51.762;14.320;2023-06-10T07:10:41;100791.34;;;22.44;71.80
7168;BME280;3625;51.762;14.320;2023-06-10T07:13:11;100788.59;;;22.58;72.30
7168;BME280;3625;51.762;14.320;2023-06-10T07:15:41;100793.28;;;22.69;71.86
7168;BME280;3625;51.762;14.320;2023-06-10T07:18:10;100794.81;;;22.73;70.79
7168;BME280;3625;51.762;14.320;2023-06-10T07:20:38;100800.13;;;22.74;68.33
7168;BME280;3625;51.762;14.320;2023-06-10T07:23:07;100783.06;;;22.74;69.19
7168;BME280;3625;51.762;14.320;2023-06-10T07:25:35;100811.28;;;22.95;69.24
7168;BME280;3625;51.762;14.320;2023-06-10T07:28:04;100802.91;;;23.00;67.59
7168;BME280;3625;51.762;14.320;2023-06-10T07:30:34;100812.59;;;23.02;66.83
7168;BME280;3625;51.762;14.320;2023-06-10T07:33:02;100820.69;;;23.02;66.64
7168;BME280;3625;51.762;14.320;2023-06-10T07:35:33;100821.81;;;23.12;66.66
7168;BME280;3625;51.762;14.320;2023-06-10T07:38:01;100826.91;;;23.29;66.38
7168;BME280;3625;51.762;14.320;2023-06-10T07:40:30;100827.78;;;23.30;65.03
7168;BME280;3625;51.762;14.320;2023-06-10T07:43:01;100804.19;;;23.19;64.84
7168;BME280;3625;51.762;14.320;2023-06-10T07:45:29;100815.03;;;23.45;65.85
7168;BME280;3625;51.762;14.320;2023-06-10T07:47:59;100823.72;;;23.62;65.16
7168;BME280;3625;51.762;14.320;2023-06-10T07:50:28;100822.44;;;23.68;64.54
7168;BME280;3625;51.762;14.320;2023-06-10T07:52:56;100824.25;;;23.80;65.45
7168;BME280;3625;51.762;14.320;2023-06-10T07:55:25;100823.91;;;23.97;65.06
7168;BME280;3625;51.762;14.320;2023-06-10T07:57:54;100827.88;;;24.04;63.86
7168;BME280;3625;51.762;14.320;2023-06-10T08:00:23;100835.88;;;24.06;63.07
7168;BME280;3625;51.762;14.320;2023-06-10T08:02:51;100829.59;;;24.05;62.30
7168;BME280;3625;51.762;14.320;2023-06-10T08:05:21;100841.19;;;24.20;61.78
7168;BME280;3625;51.762;14.320;2023-06-10T08:07:50;100838.16;;;24.25;60.92
7168;BME280;3625;51.762;14.320;2023-06-10T08:10:18;100841.94;;;24.22;60.46
7168;BME280;3625;51.762;14.320;2023-06-10T08:12:47;100850.94;;;24.10;61.08
7168;BME280;3625;51.762;14.320;2023-06-10T08:15:15;100846.69;;;24.19;60.59
7168;BME280;3625;51.762;14.320;2023-06-10T08:17:44;100852.34;;;24.28;60.18
7168;BME280;3625;51.762;14.320;2023-06-10T08:20:13;100856.13;;;24.26;57.63
7168;BME280;3625;51.762;14.320;2023-06-10T08:22:43;100849.81;;;24.38;58.49
7168;BME280;3625;51.762;14.320;2023-06-10T08:25:11;100850.81;;;24.61;58.90
7168;BME280;3625;51.762;14.320;2023-06-10T08:27:40;100851.91;;;24.58;58.17
7168;BME280;3625;51.762;14.320;2023-06-10T08:30:09;100852.25;;;24.77;58.51
7168;BME280;3625;51.762;14.320;2023-06-10T08:32:38;100854.38;;;24.85;58.46
7168;BME280;3625;51.762;14.320;2023-06-10T08:35:07;100851.94;;;24.82;57.13
7168;BME280;3625;51.762;14.320;2023-06-10T08:37:36;100856.13;;;24.86;56.75
7168;BME280;3625;51.762;14.320;2023-06-10T08:40:09;100848.69;;;25.01;56.44
7168;BME280;3625;51.762;14.320;2023-06-10T08:42:43;100861.09;;;25.16;54.81
7168;BME280;3625;51.762;14.320;2023-06-10T08:45:17;100856.50;;;25.05;53.50
7168;BME280;3625;51.762;14.320;2023-06-10T08:47:49;100854.00;;;25.02;53.32
7168;BME280;3625;51.762;14.320;2023-06-10T08:50:19;100864.06;;;25.24;53.40
7168;BME280;3625;51.762;14.320;2023-06-10T08:52:54;100845.50;;;25.31;51.84
7168;BME280;3625;51.762;14.320;2023-06-10T08:55:32;100862.53;;;25.55;50.47
7168;BME280;3625;51.762;14.320;2023-06-10T08:58:01;100847.34;;;25.30;50.03
7168;BME280;3625;51.762;14.320;2023-06-10T09:00:32;100869.06;;;25.41;49.91
7168;BME280;3625;51.762;14.320;2023-06-10T09:03:01;100854.72;;;25.28;50.13
7168;BME280;3625;51.762;14.320;2023-06-10T09:05:33;100863.88;;;25.38;49.07
7168;BME280;3625;51.762;14.320;2023-06-10T09:08:06;100865.97;;;25.46;49.06
7168;BME280;3625;51.762;14.320;2023-06-10T09:10:38;100869.66;;;25.45;49.76
7168;BME280;3625;51.762;14.320;2023-06-10T09:13:07;100866.47;;;25.40;49.15
7168;BME280;3625;51.762;14.320;2023-06-10T09:15:35;100872.38;;;25.45;47.89
7168;BME280;3625;51.762;14.320;2023-06-10T09:18:04;100842.69;;;25.43;48.14
7168;BME280;3625;51.762;14.320;2023-06-10T09:20:33;100864.81;;;25.61;48.09
7168;BME280;3625;51.762;14.320;2023-06-10T09:23:02;100857.69;;;25.71;47.71
7168;BME280;3625;51.762;14.320;2023-06-10T09:25:39;100866.31;;;25.87;46.27
7168;BME280;3625;51.762;14.320;2023-06-10T09:28:14;100863.13;;;25.82;45.47
7168;BME280;3625;51.762;14.320;2023-06-10T09:30:43;100859.06;;;25.77;45.54
7168;BME280;3625;51.762;14.320;2023-06-10T09:33:14;100846.91;;;25.59;45.44
7168;BME280;3625;51.762;14.320;2023-06-10T09:35:47;100838.50;;;25.39;44.59
7168;BME280;3625;51.762;14.320;2023-06-10T09:38:20;100863.16;;;25.47;45.04
7168;BME280;3625;51.762;14.320;2023-06-10T09:40:52;100850.09;;;25.52;45.56
7168;BME280;3625;51.762;14.320;2023-06-10T09:43:22;100834.31;;;25.46;45.06
7168;BME280;3625;51.762;14.320;2023-06-10T09:45:51;100856.31;;;25.66;44.83
7168;BME280;3625;51.762;14.320;2023-06-10T09:48:21;100849.94;;;25.67;44.63
7168;BME280;3625;51.762;14.320;2023-06-10T09:50:51;100851.66;;;25.68;44.15
7168;BME280;3625;51.762;14.320;2023-06-10T09:53:20;100854.84;;;25.73;44.44
7168;BME280;3625;51.762;14.320;2023-06-10T09:55:52;100857.78;;;25.70;43.92
7168;BME280;3625;51.762;14.320;2023-06-10T09:58:35;100853.50;;;25.78;44.24
7168;BME280;3625;51.762;14.320;2023-06-10T10:01:08;100860.16;;;25.97;43.67
7168;BME280;3625;51.762;14.320;2023-06-10T10:03:45;100835.38;;;25.90;42.73
7168;BME280;3625;51.762;14.320;2023-06-10T10:06:17;100859.56;;;25.93;42.72
7168;BME280;3625;51.762;14.320;2023-06-10T10:08:48;100857.69;;;26.05;42.64
7168;BME280;3625;51.762;14.320;2023-06-10T10:11:22;100853.25;;;26.15;42.70
7168;BME280;3625;51.762;14.320;2023-06-10T10:13:52;100851.31;;;26.28;42.33
7168;BME280;3625;51.762;14.320;2023-06-10T10:16:35;100849.56;;;26.38;41.71
7168;BME280;3625;51.762;14.320;2023-06-10T10:19:12;100834.53;;;26.34;40.78
7168;BME280;3625;51.762;14.320;2023-06-10T10:21:53;100840.81;;;26.35;40.88
7168;BME280;3625;51.762;14.320;2023-06-10T10:24:27;100781.91;;;26.03;40.66
7168;BME280;3625;51.762;14.320;2023-06-10T10:27:04;100832.03;;;26.53;40.87
7168;BME280;3625;51.762;14.320;2023-06-10T10:29:39;100830.41;;;26.62;41.29
7168;BME280;3625;51.762;14.320;2023-06-10T10:32:10;100826.53;;;26.76;41.41
7168;BME280;3625;51.762;14.320;2023-06-10T10:35:05;100840.09;;;26.76;40.28
7168;BME280;3625;51.762;14.320;2023-06-10T10:37:36;100827.63;;;26.73;40.11
7168;BME280;3625;51.762;14.320;2023-06-10T10:40:07;100822.22;;;26.73;39.49
7168;BME280;3625;51.762;14.320;2023-06-10T10:42:44;100772.19;;;26.55;39.66
7168;BME280;3625;51.762;14.320;2023-06-10T10:45:13;100825.84;;;27.06;39.82
7168;BME280;3625;51.762;14.320;2023-06-10T10:47:53;100820.06;;;27.20;39.36
7168;BME280;3625;51.762;14.320;2023-06-10T10:50:30;100821.72;;;27.53;39.33
7168;BME280;3625;51.762;14.320;2023-06-10T10:53:05;100794.22;;;27.67;38.53
7168;BME280;3625;51.762;14.320;2023-06-10T10:55:38;100821.09;;;27.91;37.22
7168;BME280;3625;51.762;14.320;2023-06-10T10:58:13;100817.72;;;27.77;38.06
7168;BME280;3625;51.762;14.320;2023-06-10T11:00:44;100793.63;;;27.63;38.62
7168;BME280;3625;51.762;14.320;2023-06-10T11:03:16;100809.19;;;27.82;38.53
7168;BME280;3625;51.762;14.320;2023-06-10T11:05:48;100811.59;;;27.75;37.78
7168;BME280;3625;51.762;14.320;2023-06-10T11:08:46;100827.28;;;27.51;37.79
7168;BME280;3625;51.762;14.320;2023-06-10T11:11:24;100776.78;;;27.49;37.51
7168;BME280;3625;51.762;14.320;2023-06-10T11:14:07;100809.50;;;27.89;37.33
7168;BME280;3625;51.762;14.320;2023-06-10T11:16:42;100813.66;;;28.23;36.44
7168;BME280;3625;51.762;14.320;2023-06-10T11:19:32;100815.09;;;28.77;35.64
7168;BME280;3625;51.762;14.320;2023-06-10T11:22:03;100797.72;;;29.07;34.83
7168;BME280;3625;51.762;14.320;2023-06-10T11:24:32;100796.13;;;29.43;35.43
7168;BME280;3625;51.762;14.320;2023-06-10T11:27:16;100776.22;;;29.70;33.56
7168;BME280;3625;51.762;14.320;2023-06-10T11:30:20;100786.44;;;29.68;33.26
7168;BME280;3625;51.762;14.320;2023-06-10T11:32:55;100753.97;;;29.74;32.15
7168;BME280;3625;51.762;14.320;2023-06-10T11:35:27;100786.75;;;30.01;32.79
7168;BME280;3625;51.762;14.320;2023-06-10T11:37:58;100680.81;;;29.60;32.53
7168;BME280;3625;51.762;14.320;2023-06-10T11:40:28;100767.91;;;30.53;32.42
7168;BME280;3625;51.762;14.320;2023-06-10T11:42:58;100772.63;;;30.79;30.90
7168;BME280;3625;51.762;14.320;2023-06-10T11:45:28;100756.72;;;31.35;30.55
7168;BME280;3625;51.762;14.320;2023-06-10T11:47:58;100775.59;;;31.46;29.61
7168;BME280;3625;51.762;14.320;2023-06-10T11:50:31;100740.56;;;31.06;28.11
7168;BME280;3625;51.762;14.320;2023-06-10T11:53:00;100774.72;;;30.85;26.13
7168;BME280;3625;51.762;14.320;2023-06-10T11:55:51;100746.88;;;29.91;28.50
7168;BME280;3625;51.762;14.320;2023-06-10T11:58:22;100782.19;;;29.92;26.81
7168;BME280;3625;51.762;14.320;2023-06-10T12:00:53;100776.84;;;30.28;26.68
7168;BME280;3625;51.762;14.320;2023-06-10T12:03:23;100784.53;;;30.42;27.62
7168;BME280;3625;51.762;14.320;2023-06-10T12:05:56;100772.88;;;30.67;27.58
7168;BME280;3625;51.762;14.320;2023-06-10T12:08:26;100740.53;;;30.81;27.42
7168;BME280;3625;51.762;14.320;2023-06-10T12:10:56;100780.13;;;30.94;26.53
7168;BME280;3625;51.762;14.320;2023-06-10T12:13:27;100764.41;;;30.16;27.26
7168;BME280;3625;51.762;14.320;2023-06-10T12:16:07;100746.09;;;28.57;34.35
7168;BME280;3625;51.762;14.320;2023-06-10T12:18:36;100747.50;;;27.83;37.58
7168;BME280;3625;51.762;14.320;2023-06-10T12:21:17;100743.47;;;27.87;37.93
7168;BME280;3625;51.762;14.320;2023-06-10T12:24:06;100723.44;;;28.18;36.69
7168;BME280;3625;51.762;14.320;2023-06-10T12:26:41;100712.69;;;28.55;34.99
7168;BME280;3625;51.762;14.320;2023-06-10T12:29:21;100747.38;;;27.94;35.73
7168;BME280;3625;51.762;14.320;2023-06-10T12:31:58;100758.81;;;28.37;35.97
7168;BME280;3625;51.762;14.320;2023-06-10T12:34:32;100743.06;;;28.31;36.42
7168;BME280;3625;51.762;14.320;2023-06-10T12:37:11;100747.19;;;27.86;38.15
7168;BME280;3625;51.762;14.320;2023-06-10T12:39:50;100746.66;;;27.31;41.05
7168;BME280;3625;51.762;14.320;2023-06-10T12:42:22;100722.41;;;26.97;40.98
7168;BME280;3625;51.762;14.320;2023-06-10T12:44:55;100749.03;;;26.40;43.46
7168;BME280;3625;51.762;14.320;2023-06-10T12:47:38;100709.78;;;26.01;45.42
7168;BME280;3625;51.762;14.320;2023-06-10T12:50:11;100723.03;;;26.69;43.59
7168;BME280;3625;51.762;14.320;2023-06-10T12:52:50;100747.69;;;26.23;44.64
7168;BME280;3625;51.762;14.320;2023-06-10T12:55:19;100741.88;;;26.39;44.27
7168;BME280;3625;51.762;14.320;2023-06-10T12:57:53;100710.97;;;26.62;43.68
7168;BME280;3625;51.762;14.320;2023-06-10T13:00:27;100715.22;;;26.55;43.02
7168;BME280;3625;51.762;14.320;2023-06-10T13:03:05;100722.94;;;26.59;43.99
7168;BME280;3625;51.762;14.320;2023-06-10T13:05:44;100720.88;;;27.04;43.12
7168;BME280;3625;51.762;14.320;2023-06-10T13:08:16;100723.53;;;26.95;42.69
7168;BME280;3625;51.762;14.320;2023-06-10T13:10:47;100654.41;;;26.67;42.81
7168;BME280;3625;51.762;14.320;2023-06-10T13:13:21;100695.28;;;26.86;42.60
7168;BME280;3625;51.762;14.320;2023-06-10T13:15:53;100682.56;;;26.87;42.56